sensor_id;sensor_type;location;lat;lon;timestamp;pressure;altitude;pressure_sealevel;temperature;humidity
31285;BME280;56605;51.516;6.742;2023-05-11T00:01:39;101241.06;;;11.92;100.00
31285;BME280;56605;51.516;6.742;2023-05-11T00:04:04;101245.44;;;11.93;100.00
31285;BME280;56605;51.516;6.742;2023-05-11T00:06:30;101238.91;;;11.96;100.00
31285;BME280;56605;51.516;6.742;2023-05-11T00:08:56;101234.56;;;11.95;100.00
31285;BME280;56605;51.516;6.742;2023-05-11T00:11:21;101240.25;;;11.91;100.00
31285;BME280;56605;51.516;6.742;2023-05-11T00:13:47;101242.94;;;11.91;100.00
31285;BME280;56605;51.516;6.742;2023-05-11T00:16:13;101241.09;;;12.00;100.00
31285;BME280;56605;51.516;6.742;2023-05-11T00:18:38;101246.09;;;11.95;100.00
31285;BME280;56605;51.516;6.742;2023-05-11T00:21:04;101241.59;;;11.96;100.00
31285;BME280;56605;51.516;6.742;2023-05-11T00:23:29;101238.91;;;12.04;100.00
31285;BME280;56605;51.516;6.742;2023-05-11T00:25:54;101236.25;;;11.96;100.00
31285;BME280;56605;51.516;6.742;2023-05-11T00:28:20;101238.75;;;11.97;100.00
31285;BME280;56605;51.516;6.742;2023-05-11T00:30:46;101240.41;;;11.98;100.00
31285;BME280;56605;51.516;6.742;2023-05-11T00:33:11;101244.78;;;11.99;100.00
31285;BME280;56605;51.516;6.742;2023-05-11T00:35:36;101240.41;;;11.98;100.00
31285;BME280;56605;51.516;6.742;2023-05-11T00:38:02;101249.78;;;12.02;100.00
31285;BME280;56605;51.516;6.742;2023-05-11T00:40:29;101235.56;;;11.93;100.00
31285;BME280;56605;51.516;6.742;2023-05-11T00:42:55;101243.78;;;12.00;100.00
31285;BME280;56605;51.516;6.742;2023-05-11T00:45:20;101240.41;;;11.90;100.00
31285;BME280;56605;51.516;6.742;2023-05-11T00:47:45;101243.91;;;11.90;100.00
31285;BME280;56605;51.516;6.742;2023-05-11T00:50:11;101238.22;;;11.93;100.00
31285;BME280;56605;51.516;6.742;2023-05-11T00:52:36;101237.09;;;11.96;100.00
31285;BME280;56605;51.516;6.742;2023-05-11T00:55:02;101238.75;;;11.97;100.00
31285;BME280;56605;51.516;6.742;2023-05-11T00:57:28;101239.56;;;11.89;100.00
31285;BME280;56605;51.516;6.742;2023-05-11T00:59:57;101242.75;;;11.93;100.00
31285;BME280;56605;51.516;6.742;2023-05-11T01:02:22;101247.78;;;11.96;100.00
31285;BME280;56605;51.516;6.742;2023-05-11T01:04:48;101245.59;;;12.00;100.00
31285;BME280;56605;51.516;6.742;2023-05-11T01:09:59;101251.31;;;12.05;100.00
31285;BME280;56605;51.516;6.742;2023-05-11T01:15:09;101252.63;;;12.01;100.00
31285;BME280;56605;51.516;6.742;2023-05-11T01:17:46;101247.94;;;11.95;100.00
31285;BME280;56605;51.516;6.742;2023-05-11T01:20:17;101256.13;;;11.93;100.00
31285;BME280;56605;51.516;6.742;2023-05-11T01:25:48;101247.44;;;11.91;100.00
31285;BME280;56605;51.516;6.742;2023-05-11T01:28:44;101253.94;;;11.88;100.00
31285;BME280;56605;51.516;6.742;2023-05-11T01:31:14;101248.44;;;11.90;100.00
31285;BME280;56605;51.516;6.742;2023-05-11T01:33:57;101247.59;;;11.89;100.00
31285;BME280;56605;51.516;6.742;2023-05-11T01:36:32;101256.47;;;11.90;100.00
31285;BME280;56605;51.516;6.742;2023-05-11T01:39:03;101250.75;;;11.85;100.00
31285;BME280;56605;51.516;6.742;2023-05-11T01:41:32;101257.28;;;11.82;100.00
31285;BME280;56605;51.516;6.742;2023-05-11T01:44:02;101248.59;;;11.80;100.00
31285;BME280;56605;51.516;6.742;2023-05-11T01:46:32;101257.44;;;11.80;100.00
31285;BME280;56605;51.516;6.742;2023-05-11T01:48:58;101256.78;;;11.78;100.00
31285;BME280;56605;51.516;6.742;2023-05-11T01:51:28;101251.22;;;11.72;100.00
31285;BME280;56605;51.516;6.742;2023-05-11T01:53:55;101257.75;;;11.69;100.00
31285;BME280;56605;51.516;6.742;2023-05-11T01:56:21;101262.44;;;11.75;100.00
31285;BME280;56605;51.516;6.742;2023-05-11T01:58:48;101269.47;;;11.76;100.00
31285;BME280;56605;51.516;6.742;2023-05-11T02:01:16;101272.13;;;11.76;100.00
31285;BME280;56605;51.516;6.742;2023-05-11T02:03:42;101273.47;;;11.72;100.00
31285;BME280;56605;51.516;6.742;2023-05-11T02:06:12;101268.94;;;11.73;100.00
31285;BME280;56605;51.516;6.742;2023-05-11T02:08:39;101276.63;;;11.67;100.00
31285;BME280;56605;51.516;6.742;2023-05-11T02:11:06;101272.75;;;11.62;100.00
31285;BME280;56605;51.516;6.742;2023-05-11T02:13:33;101271.91;;;11.61;100.00
31285;BME280;56605;51.516;6.742;2023-05-11T02:16:00;101271.41;;;11.58;100.00
31285;BME280;56605;51.516;6.742;2023-05-11T02:18:27;101270.09;;;11.62;100.00
31285;BME280;56605;51.516;6.742;2023-05-11T02:20:53;101274.97;;;11.66;100.00
31285;BME280;56605;51.516;6.742;2023-05-11T02:23:21;101273.63;;;11.71;100.00
31285;BME280;56605;51.516;6.742;2023-05-11T02:25:50;101272.78;;;11.70;100.00
31285;BME280;56605;51.516;6.742;2023-05-11T02:28:16;101279.78;;;11.71;100.00
31285;BME280;56605;51.516;6.742;2023-05-11T02:30:44;101281.25;;;11.57;100.00
31285;BME280;56605;51.516;6.742;2023-05-11T02:33:19;101272.56;;;11.55;100.00
31285;BME280;56605;51.516;6.742;2023-05-11T02:35:46;101276.25;;;11.62;100.00
31285;BME280;56605;51.516;6.742;2023-05-11T02:38:14;101275.53;;;11.52;100.00
31285;BME280;56605;51.516;6.742;2023-05-11T02:40:45;101282.59;;;11.53;100.00
31285;BME280;56605;51.516;6.742;2023-05-11T02:43:14;101282.13;;;11.58;100.00
31285;BME280;56605;51.516;6.742;2023-05-11T02:45:42;101279.59;;;11.56;100.00
31285;BME280;56605;51.516;6.742;2023-05-11T02:48:13;101293.28;;;11.53;100.00
31285;BME280;56605;51.516;6.742;2023-05-11T02:50:43;101285.09;;;11.54;100.00
31285;BME280;56605;51.516;6.742;2023-05-11T02:53:13;101286.59;;;11.49;100.00
31285;BME280;56605;51.516;6.742;2023-05-11T02:55:40;101283.31;;;11.63;100.00
31285;BME280;56605;51.516;6.742;2023-05-11T02:58:06;101281.56;;;11.46;100.00
31285;BME280;56605;51.516;6.742;2023-05-11T03:00:32;101278.00;;;11.37;100.00
31285;BME280;56605;51.516;6.742;2023-05-11T03:02:57;101280.53;;;11.38;100.00
31285;BME280;56605;51.516;6.742;2023-05-11T03:05:23;101284.03;;;11.39;100.00
31285;BME280;56605;51.516;6.742;2023-05-11T03:07:50;101286.63;;;11.57;100.00
31285;BME280;56605;51.516;6.742;2023-05-11T03:10:15;101286.09;;;11.53;100.00
31285;BME280;56605;51.516;6.742;2023-05-11T03:12:41;101285.22;;;11.45;100.00
31285;BME280;56605;51.516;6.742;2023-05-11T03:15:07;101281.09;;;11.50;100.00
31285;BME280;56605;51.516;6.742;2023-05-11T03:17:36;101282.03;;;11.41;100.00
31285;BME280;56605;51.516;6.742;2023-05-11T03:20:03;101278.66;;;11.39;100.00
31285;BME280;56605;51.516;6.742;2023-05-11T03:22:29;101283.53;;;11.44;100.00
31285;BME280;56605;51.516;6.742;2023-05-11T03:24:55;101284.56;;;11.51;100.00
31285;BME280;56605;51.516;6.742;2023-05-11T03:27:22;101282.69;;;11.43;100.00
31285;BME280;56605;51.516;6.742;2023-05-11T03:29:49;101280.41;;;11.57;100.00
31285;BME280;56605;51.516;6.742;2023-05-11T03:32:16;101277.19;;;11.45;100.00
31285;BME280;56605;51.516;6.742;2023-05-11T03:34:42;101277.09;;;11.54;100.00
31285;BME280;56605;51.516;6.742;2023-05-11T03:37:09;101273.41;;;11.56;100.00
31285;BME280;56605;51.516;6.742;2023-05-11T03:39:37;101257.69;;;11.52;100.00
31285;BME280;56605;51.516;6.742;2023-05-11T03:42:04;101262.94;;;11.36;100.00
31285;BME280;56605;51.516;6.742;2023-05-11T03:44:31;101265.16;;;11.40;100.00
31285;BME280;56605;51.516;6.742;2023-05-11T03:46:58;101245.63;;;11.40;100.00
31285;BME280;56605;51.516;6.742;2023-05-11T03:49:25;101254.81;;;11.46;100.00
31285;BME280;56605;51.516;6.742;2023-05-11T03:51:51;101243.28;;;11.45;100.00
31285;BME280;56605;51.516;6.742;2023-05-11T03:54:17;101234.25;;;11.46;100.00
31285;BME280;56605;51.516;6.742;2023-05-11T03:56:43;101235.25;;;11.45;100.00
31285;BME280;56605;51.516;6.742;2023-05-11T03:59:13;101234.75;;;11.41;100.00
31285;BME280;56605;51.516;6.742;2023-05-11T04:01:41;101238.78;;;11.46;100.00
31285;BME280;56605;51.516;6.742;2023-05-11T04:04:06;101238.63;;;11.47;100.00
31285;BME280;56605;51.516;6.742;2023-05-11T04:06:31;101247.31;;;11.49;100.00
31285;BME280;56605;51.516;6.742;2023-05-11T04:08:57;101239.09;;;11.43;100.00
31285;BME280;56605;51.516;6.742;2023-05-11T04:11:22;101245.31;;;11.51;100.00
31285;BME280;56605;51.516;6.742;2023-05-11T04:13:47;101239.44;;;11.48;100.00
31285;BME280;56605;51.516;6.742;2023-05-11T04:16:13;101245.00;;;11.54;100.00
31285;BME280;56605;51.516;6.742;2023-05-11T04:18:38;101247.03;;;11.61;100.00
31285;BME280;56605;51.516;6.742;2023-05-11T04:21:03;101242.88;;;11.66;100.00
31285;BME280;56605;51.516;6.742;2023-05-11T04:23:30;101253.41;;;11.68;100.00
31285;BME280;56605;51.516;6.742;2023-05-11T04:25:56;101256.72;;;11.62;100.00
31285;BME280;56605;51.516;6.742;2023-05-11T04:28:22;101270.25;;;11.60;100.00
31285;BME280;56605;51.516;6.742;2023-05-11T04:30:55;101266.09;;;11.66;100.00
31285;BME280;56605;51.516;6.742;2023-05-11T04:33:21;101263.41;;;11.66;100.00
31285;BME280;56605;51.516;6.742;2023-05-11T04:35:49;101270.63;;;11.74;100.00
31285;BME280;56605;51.516;6.742;2023-05-11T04:38:15;101268.28;;;11.71;100.00
31285;BME280;56605;51.516;6.742;2023-05-11T04:40:40;101269.47;;;11.76;100.00
31285;BME280;56605;51.516;6.742;2023-05-11T04:43:05;101276.81;;;11.74;100.00
31285;BME280;56605;51.516;6.742;2023-05-11T04:45:31;101282.53;;;11.79;100.00
31285;BME280;56605;51.516;6.742;2023-05-11T04:47:56;101290.06;;;11.84;100.00
31285;BME280;56605;51.516;6.742;2023-05-11T04:50:21;101288.38;;;11.83;100.00
31285;BME280;56605;51.516;6.742;2023-05-11T04:52:47;101283.53;;;11.87;100.00
31285;BME280;56605;51.516;6.742;2023-05-11T04:55:12;101284.72;;;11.84;100.00
31285;BME280;56605;51.516;6.742;2023-05-11T04:57:37;101284.41;;;12.04;100.00
31285;BME280;56605;51.516;6.742;2023-05-11T05:00:05;101292.25;;;11.89;100.00
31285;BME280;56605;51.516;6.742;2023-05-11T05:02:31;101290.88;;;11.76;100.00
31285;BME280;56605;51.516;6.742;2023-05-11T05:04:56;101297.25;;;11.84;100.00
31285;BME280;56605;51.516;6.742;2023-05-11T05:07:21;101298.91;;;11.85;100.00
31285;BME280;56605;51.516;6.742;2023-05-11T05:09:47;101293.72;;;11.83;100.00
31285;BME280;56605;51.516;6.742;2023-05-11T05:12:12;101302.91;;;11.80;100.00
31285;BME280;56605;51.516;6.742;2023-05-11T05:14:37;101303.91;;;11.79;100.00
31285;BME280;56605;51.516;6.742;2023-05-11T05:17:02;101299.06;;;11.83;100.00
31285;BME280;56605;51.516;6.742;2023-05-11T05:19:28;101307.47;;;11.88;100.00
31285;BME280;56605;51.516;6.742;2023-05-11T05:21:53;101303.44;;;11.84;100.00
31285;BME280;56605;51.516;6.742;2023-05-11T05:24:18;101300.28;;;11.89;100.00
31285;BME280;56605;51.516;6.742;2023-05-11T05:26:43;101309.97;;;11.90;100.00
31285;BME280;56605;51.516;6.742;2023-05-11T05:29:09;101314.47;;;11.81;100.00
31285;BME280;56605;51.516;6.742;2023-05-11T05:31:34;101317.00;;;11.91;100.00
31285;BME280;56605;51.516;6.742;2023-05-11T05:33:59;101319.25;;;11.69;100.00
31285;BME280;56605;51.516;6.742;2023-05-11T05:36:25;101316.13;;;11.82;100.00
31285;BME280;56605;51.516;6.742;2023-05-11T05:38:50;101323.13;;;11.75;100.00
31285;BME280;56605;51.516;6.742;2023-05-11T05:41:15;101325.88;;;11.91;100.00
31285;BME280;56605;51.516;6.742;2023-05-11T05:43:41;101329.34;;;11.84;100.00
31285;BME280;56605;51.516;6.742;2023-05-11T05:46:06;101331.31;;;11.82;100.00
31285;BME280;56605;51.516;6.742;2023-05-11T05:48:32;101337.53;;;11.82;100.00
31285;BME280;56605;51.516;6.742;2023-05-11T05:50:57;101338.41;;;11.91;100.00
31285;BME280;56605;51.516;6.742;2023-05-11T05:53:24;101341.44;;;11.96;100.00
31285;BME280;56605;51.516;6.742;2023-05-11T05:55:49;101341.22;;;11.81;100.00
31285;BME280;56605;51.516;6.742;2023-05-11T05:58:15;101350.25;;;11.80;100.00
31285;BME280;56605;51.516;6.742;2023-05-11T06:00:40;101353.06;;;11.78;100.00
31285;BME280;56605;51.516;6.742;2023-05-11T06:03:05;101340.53;;;11.79;100.00
31285;BME280;56605;51.516;6.742;2023-05-11T06:05:31;101349.06;;;11.83;100.00
31285;BME280;56605;51.516;6.742;2023-05-11T06:07:56;101348.69;;;11.77;100.00
31285;BME280;56605;51.516;6.742;2023-05-11T06:10:21;101354.22;;;11.76;100.00
31285;BME280;56605;51.516;6.742;2023-05-11T06:12:47;101359.09;;;11.80;100.00
31285;BME280;56605;51.516;6.742;2023-05-11T06:15:12;101347.59;;;11.88;100.00
31285;BME280;56605;51.516;6.742;2023-05-11T06:17:37;101349.06;;;11.83;100.00
31285;BME280;56605;51.516;6.742;2023-05-11T06:20:03;101351.06;;;11.80;100.00
31285;BME280;56605;51.516;6.742;2023-05-11T06:22:30;101343.91;;;11.89;100.00
31285;BME280;56605;51.516;6.742;2023-05-11T06:24:55;101347.94;;;11.93;100.00
31285;BME280;56605;51.516;6.742;2023-05-11T06:27:21;101347.78;;;11.95;100.00
31285;BME280;56605;51.516;6.742;2023-05-11T06:29:46;101341.13;;;11.99;100.00
31285;BME280;56605;51.516;6.742;2023-05-11T06:32:12;101352.09;;;11.88;100.00
31285;BME280;56605;51.516;6.742;2023-05-11T06:34:37;101341.16;;;12.08;100.00
31285;BME280;56605;51.516;6.742;2023-05-11T06:37:03;101343.84;;;12.08;100.00
31285;BME280;56605;51.516;6.742;2023-05-11T06:39:28;101346.81;;;12.04;100.00
31285;BME280;56605;51.516;6.742;2023-05-11T06:41:54;101338.00;;;12.21;100.00
31285;BME280;56605;51.516;6.742;2023-05-11T06:44:19;101345.34;;;12.10;100.00
31285;BME280;56605;51.516;6.742;2023-05-11T06:46:44;101345.50;;;12.09;100.00
31285;BME280;56605;51.516;6.742;2023-05-11T06:49:10;101342.03;;;12.25;100.00
31285;BME280;56605;51.516;6.742;2023-05-11T06:51:35;101347.91;;;12.37;100.00
31285;BME280;56605;51.516;6.742;2023-05-11T06:54:00;101340.25;;;12.42;100.00
31285;BME280;56605;51.516;6.742;2023-05-11T06:56:25;101345.34;;;12.18;100.00
31285;BME280;56605;51.516;6.742;2023-05-11T06:58:58;101345.03;;;12.22;100.00
31285;BME280;56605;51.516;6.742;2023-05-11T07:01:26;101342.56;;;12.37;100.00
31285;BME280;56605;51.516;6.742;2023-05-11T07:03:55;101343.72;;;12.34;100.00
31285;BME280;56605;51.516;6.742;2023-05-11T07:06:20;101355.13;;;12.45;100.00
31285;BME280;56605;51.516;6.742;2023-05-11T07:08:45;101348.78;;;12.54;100.00
31285;BME280;56605;51.516;6.742;2023-05-11T07:11:11;101344.91;;;12.48;100.00
31285;BME280;56605;51.516;6.742;2023-05-11T07:13:37;101347.47;;;12.75;100.00
31285;BME280;56605;51.516;6.742;2023-05-11T07:16:02;101351.97;;;12.66;100.00
31285;BME280;56605;51.516;6.742;2023-05-11T07:18:27;101346.13;;;12.87;100.00
31285;BME280;56605;51.516;6.742;2023-05-11T07:20:53;101350.28;;;12.90;100.00
31285;BME280;56605;51.516;6.742;2023-05-11T07:23:18;101346.78;;;12.98;100.00
31285;BME280;56605;51.516;6.742;2023-05-11T07:25:43;101344.91;;;13.06;100.00
31285;BME280;56605;51.516;6.742;2023-05-11T07:28:09;101342.88;;;13.25;100.00
31285;BME280;56605;51.516;6.742;2023-05-11T07:30:34;101348.13;;;13.10;100.00
31285;BME280;56605;51.516;6.742;2023-05-11T07:32:59;101336.72;;;13.08;100.00
31285;BME280;56605;51.516;6.742;2023-05-11T07:35:25;101333.69;;;13.19;100.00
31285;BME280;56605;51.516;6.742;2023-05-11T07:37:50;101334.16;;;13.31;100.00
31285;BME280;56605;51.516;6.742;2023-05-11T07:40:15;101336.97;;;13.47;100.00
31285;BME280;56605;51.516;6.742;2023-05-11T07:42:41;101332.78;;;13.44;100.00
31285;BME280;56605;51.516;6.742;2023-05-11T07:45:07;101330.59;;;13.56;100.00
31285;BME280;56605;51.516;6.742;2023-05-11T07:47:32;101338.91;;;13.78;100.00
31285;BME280;56605;51.516;6.742;2023-05-11T07:49:57;101341.38;;;13.88;100.00
31285;BME280;56605;51.516;6.742;2023-05-11T07:52:23;101336.19;;;14.18;100.00
31285;BME280;56605;51.516;6.742;2023-05-11T07:54:48;101335.47;;;14.24;100.00
31285;BME280;56605;51.516;6.742;2023-05-11T07:57:13;101325.34;;;14.35;100.00
31285;BME280;56605;51.516;6.742;2023-05-11T07:59:39;101331.78;;;14.49;100.00
31285;BME280;56605;51.516;6.742;2023-05-11T08:02:06;101334.22;;;14.35;100.00
31285;BME280;56605;51.516;6.742;2023-05-11T08:04:34;101324.75;;;14.48;100.00
31285;BME280;56605;51.516;6.742;2023-05-11T08:07:00;101320.59;;;14.60;100.00
31285;BME280;56605;51.516;6.742;2023-05-11T08:09:26;101321.56;;;14.67;100.00
31285;BME280;56605;51.516;6.742;2023-05-11T08:11:51;101322.22;;;14.69;100.00
31285;BME280;56605;51.516;6.742;2023-05-11T08:14:18;101324.69;;;14.32;100.00
31285;BME280;56605;51.516;6.742;2023-05-11T08:16:45;101328.31;;;14.40;100.00
31285;BME280;56605;51.516;6.742;2023-05-11T08:19:10;101314.97;;;14.31;100.00
31285;BME280;56605;51.516;6.742;2023-05-11T08:21:37;101319.31;;;14.32;100.00
31285;BME280;56605;51.516;6.742;2023-05-11T08:24:02;101324.69;;;14.01;100.00
31285;BME280;56605;51.516;6.742;2023-05-11T08:26:28;101315.53;;;14.18;100.00
31285;BME280;56605;51.516;6.742;2023-05-11T08:28:53;101317.66;;;14.31;100.00
31285;BME280;56605;51.516;6.742;2023-05-11T08:31:18;101324.31;;;14.36;100.00
31285;BME280;56605;51.516;6.742;2023-05-11T08:33:44;101328.06;;;14.50;100.00
31285;BME280;56605;51.516;6.742;2023-05-11T08:36:09;101331.72;;;14.57;100.00
31285;BME280;56605;51.516;6.742;2023-05-11T08:38:37;101330.94;;;14.48;100.00
31285;BME280;56605;51.516;6.742;2023-05-11T08:41:03;101329.16;;;14.40;100.00
31285;BME280;56605;51.516;6.742;2023-05-11T08:43:29;101335.94;;;14.51;100.00
31285;BME280;56605;51.516;6.742;2023-05-11T08:45:59;101330.13;;;14.48;100.00
31285;BME280;56605;51.516;6.742;2023-05-11T08:48:27;101325.25;;;14.66;100.00
31285;BME280;56605;51.516;6.742;2023-05-11T08:50:53;101329.81;;;14.42;100.00
31285;BME280;56605;51.516;6.742;2023-05-11T08:53:18;101324.63;;;14.64;100.00
31285;BME280;56605;51.516;6.742;2023-05-11T08:55:45;101326.69;;;14.77;100.00
31285;BME280;56605;51.516;6.742;2023-05-11T08:58:10;101330.00;;;14.64;100.00
31285;BME280;56605;51.516;6.742;2023-05-11T09:00:39;101333.22;;;14.60;100.00
31285;BME280;56605;51.516;6.742;2023-05-11T09:03:04;101336.13;;;14.26;100.00
31285;BME280;56605;51.516;6.742;2023-05-11T09:05:30;101342.69;;;14.24;100.00
31285;BME280;56605;51.516;6.742;2023-05-11T09:07:59;101345.44;;;14.15;100.00
31285;BME280;56605;51.516;6.742;2023-05-11T09:10:26;101343.09;;;14.12;100.00
31285;BME280;56605;51.516;6.742;2023-05-11T09:12:52;101337.72;;;14.12;100.00
31285;BME280;56605;51.516;6.742;2023-05-11T09:15:17;101332.97;;;14.23;100.00
31285;BME280;56605;51.516;6.742;2023-05-11T09:17:43;101338.78;;;14.35;100.00
31285;BME280;56605;51.516;6.742;2023-05-11T09:20:08;101336.13;;;14.26;100.00
31285;BME280;56605;51.516;6.742;2023-05-11T09:22:40;101339.06;;;14.40;100.00
31285;BME280;56605;51.516;6.742;2023-05-11T09:25:06;101338.00;;;14.26;100.00
31285;BME280;56605;51.516;6.742;2023-05-11T09:27:39;101345.75;;;14.44;100.00
31285;BME280;56605;51.516;6.742;2023-05-11T09:30:15;101341.94;;;14.38;100.00
31285;BME280;56605;51.516;6.742;2023-05-11T09:32:55;101346.41;;;14.46;100.00
31285;BME280;56605;51.516;6.742;2023-05-11T09:35:25;101343.56;;;14.48;100.00
31285;BME280;56605;51.516;6.742;2023-05-11T09:38:03;101337.44;;;14.30;100.00
31285;BME280;56605;51.516;6.742;2023-05-11T09:40:31;101333.59;;;14.33;100.00
31285;BME280;56605;51.516;6.742;2023-05-11T09:42:57;101332.31;;;14.44;100.00
31285;BME280;56605;51.516;6.742;2023-05-11T09:45:40;101334.34;;;14.65;100.00
31285;BME280;56605;51.516;6.742;2023-05-11T09:48:07;101343.06;;;14.67;100.00
31285;BME280;56605;51.516;6.742;2023-05-11T09:50:37;101344.91;;;14.67;100.00
31285;BME280;56605;51.516;6.742;2023-05-11T09:53:03;101346.88;;;14.50;100.00
31285;BME280;56605;51.516;6.742;2023-05-11T09:55:28;101340.94;;;14.63;100.00
31285;BME280;56605;51.516;6.742;2023-05-11T09:57:56;101341.09;;;14.61;100.00
31285;BME280;56605;51.516;6.742;2023-05-11T10:00:21;101334.44;;;14.72;100.00
31285;BME280;56605;51.516;6.742;2023-05-11T10:03:04;101351.53;;;14.56;100.00
31285;BME280;56605;51.516;6.742;2023-05-11T10:05:34;101345.28;;;14.64;100.00
31285;BME280;56605;51.516;6.742;2023-05-11T10:08:04;101345.56;;;14.69;100.00
31285;BME280;56605;51.516;6.742;2023-05-11T10:10:32;101344.22;;;14.73;100.00
31285;BME280;56605;51.516;6.742;2023-05-11T10:12:59;101340.81;;;14.79;100.00
31285;BME280;56605;51.516;6.742;2023-05-11T10:15:28;101334.34;;;14.89;100.00
31285;BME280;56605;51.516;6.742;2023-05-11T10:17:57;101334.09;;;14.99;100.00
31285;BME280;56605;51.516;6.742;2023-05-11T10:20:24;101331.97;;;15.09;100.00
31285;BME280;56605;51.516;6.742;2023-05-11T10:22:50;101328.66;;;15.07;100.00
31285;BME280;56605;51.516;6.742;2023-05-11T10:25:18;101329.56;;;15.14;100.00
31285;BME280;56605;51.516;6.742;2023-05-11T10:27:46;101324.31;;;15.36;100.00
31285;BME280;56605;51.516;6.742;2023-05-11T10:30:12;101325.41;;;15.42;100.00
31285;BME280;56605;51.516;6.742;2023-05-11T10:32:37;101335.13;;;15.43;100.00
31285;BME280;56605;51.516;6.742;2023-05-11T10:35:04;101321.13;;;15.47;100.00
31285;BME280;56605;51.516;6.742;2023-05-11T10:37:31;101324.66;;;15.48;100.00
31285;BME280;56605;51.516;6.742;2023-05-11T10:39:56;101328.22;;;15.49;100.00
31285;BME280;56605;51.516;6.742;2023-05-11T10:45:24;101318.41;;;16.30;100.00
31285;BME280;56605;51.516;6.742;2023-05-11T10:50:59;101322.38;;;16.34;100.00
31285;BME280;56605;51.516;6.742;2023-05-11T10:53:56;101321.53;;;16.33;100.00
31285;BME280;56605;51.516;6.742;2023-05-11T11:01:49;101319.31;;;16.37;100.00
31285;BME280;56605;51.516;6.742;2023-05-11T11:04:16;101316.47;;;16.45;100.00
31285;BME280;56605;51.516;6.742;2023-05-11T11:06:43;101317.56;;;16.51;100.00
31285;BME280;56605;51.516;6.742;2023-05-11T11:09:13;101321.28;;;16.50;100.00
31285;BME280;56605;51.516;6.742;2023-05-11T11:11:41;101320.75;;;16.61;100.00
31285;BME280;56605;51.516;6.742;2023-05-11T11:14:10;101310.44;;;16.65;100.00
31285;BME280;56605;51.516;6.742;2023-05-11T11:16:37;101314.03;;;17.01;100.00
31285;BME280;56605;51.516;6.742;2023-05-11T11:21:53;101321.44;;;16.42;100.00
31285;BME280;56605;51.516;6.742;2023-05-11T11:27:04;101305.38;;;16.12;100.00
31285;BME280;56605;51.516;6.742;2023-05-11T11:29:30;101313.59;;;15.88;100.00
31285;BME280;56605;51.516;6.742;2023-05-11T11:34:47;101313.50;;;15.96;100.00
31285;BME280;56605;51.516;6.742;2023-05-11T11:37:17;101308.03;;;15.75;100.00
31285;BME280;56605;51.516;6.742;2023-05-11T11:42:12;101321.38;;;15.98;100.00
31285;BME280;56605;51.516;6.742;2023-05-11T11:44:38;101312.75;;;15.72;100.00
31285;BME280;56605;51.516;6.742;2023-05-11T11:49:46;101313.47;;;15.81;100.00
31285;BME280;56605;51.516;6.742;2023-05-11T11:54:54;101310.47;;;15.09;100.00
31285;BME280;56605;51.516;6.742;2023-05-11T12:00:07;101315.69;;;15.56;100.00
31285;BME280;56605;51.516;6.742;2023-05-11T12:02:44;101312.06;;;15.49;100.00
31285;BME280;56605;51.516;6.742;2023-05-11T12:05:14;101311.47;;;15.08;100.00
31285;BME280;56605;51.516;6.742;2023-05-11T12:07:44;101320.22;;;15.10;100.00
31285;BME280;56605;51.516;6.742;2023-05-11T12:10:12;101314.94;;;15.17;100.00
31285;BME280;56605;51.516;6.742;2023-05-11T12:12:38;101311.16;;;15.41;100.00
31285;BME280;56605;51.516;6.742;2023-05-11T12:15:06;101306.75;;;15.40;100.00
31285;BME280;56605;51.516;6.742;2023-05-11T12:17:32;101301.75;;;15.37;100.00
31285;BME280;56605;51.516;6.742;2023-05-11T12:20:15;101303.94;;;15.64;100.00
31285;BME280;56605;51.516;6.742;2023-05-11T12:22:42;101310.00;;;15.51;100.00
31285;BME280;56605;51.516;6.742;2023-05-11T12:25:14;101310.09;;;15.57;100.00
31285;BME280;56605;51.516;6.742;2023-05-11T12:27:48;101303.88;;;15.57;100.00
31285;BME280;56605;51.516;6.742;2023-05-11T12:32:46;101300.44;;;15.78;100.00
31285;BME280;56605;51.516;6.742;2023-05-11T12:35:11;101300.84;;;16.12;100.00
31285;BME280;56605;51.516;6.742;2023-05-11T12:37:40;101289.72;;;16.22;100.00
31285;BME280;56605;51.516;6.742;2023-05-11T12:40:09;101287.81;;;16.16;100.00
31285;BME280;56605;51.516;6.742;2023-05-11T12:42:35;101288.66;;;16.16;100.00
31285;BME280;56605;51.516;6.742;2023-05-11T12:45:01;101286.56;;;16.18;100.00
31285;BME280;56605;51.516;6.742;2023-05-11T12:47:26;101287.38;;;16.12;100.00
31285;BME280;56605;51.516;6.742;2023-05-11T12:49:52;101283.97;;;16.03;100.00
31285;BME280;56605;51.516;6.742;2023-05-11T12:52:17;101276.22;;;16.15;100.00
31285;BME280;56605;51.516;6.742;2023-05-11T12:54:49;101273.06;;;16.12;100.00
31285;BME280;56605;51.516;6.742;2023-05-11T12:57:26;101274.75;;;16.34;100.00
31285;BME280;56605;51.516;6.742;2023-05-11T13:00:09;101266.84;;;16.61;100.00
31285;BME280;56605;51.516;6.742;2023-05-11T13:02:43;101268.66;;;16.54;100.00
31285;BME280;56605;51.516;6.742;2023-05-11T13:05:10;101274.56;;;16.65;100.00
31285;BME280;56605;51.516;6.742;2023-05-11T13:07:36;101276.53;;;16.49;100.00
31285;BME280;56605;51.516;6.742;2023-05-11T13:10:02;101276.53;;;16.49;100.00
31285;BME280;56605;51.516;6.742;2023-05-11T13:12:27;101282.91;;;16.70;100.00
31285;BME280;56605;51.516;6.742;2023-05-11T13:15:10;101271.81;;;16.58;100.00
31285;BME280;56605;51.516;6.742;2023-05-11T13:17:41;101278.03;;;16.58;100.00
31285;BME280;56605;51.516;6.742;2023-05-11T13:20:26;101277.25;;;16.65;100.00
31285;BME280;56605;51.516;6.742;2023-05-11T13:25:27;101280.78;;;16.65;100.00